Owen Sound, Canada
Current Conditions -  °F | °C
As of 9:00 AM on Wednesday 22 Oct 2014 (Local Time) from CYVV Reporting Station
Few Clouds Few Clouds  
Wind Chill: 43°   Ceiling: Unl
Heat Index: 43°   Visibility: 15mi
Dew Point: 37°   Wind: 3mph
Humidity: 81%   Direction: 10°N
Pressure: 30.32"   Gusts: NA
Location:  44.56°N, 80.94°W
Report Text: CYVV 221300Z 01003KT 15SM FEW025 06/03 A3032 RMK SC1 SLP277
Loading
Personal Weather Stations






























Interactive Weather Map New forecast layout! Learn more

10-Day Weather Forecast

Advertisements
Track Severe Weather on mobile